createdAt,value
2022-12-26T00:03:59.890Z,4.48
2022-12-26T00:08:02.077Z,4.43
2022-12-26T00:12:03.990Z,4.25
2022-12-26T00:16:08.122Z,4.39
2022-12-26T00:20:10.342Z,4.57
2022-12-26T00:24:12.432Z,4.57
2022-12-26T00:28:14.091Z,4.51
2022-12-26T00:32:16.131Z,4.43
2022-12-26T00:36:21.226Z,4.34
2022-12-26T00:40:24.407Z,4.50
2022-12-26T00:44:26.329Z,4.63
2022-12-26T00:48:28.990Z,4.72
2022-12-26T00:52:30.628Z,4.66
2022-12-26T00:56:32.826Z,4.64
2022-12-26T01:00:35.240Z,4.64
2022-12-26T01:04:37.201Z,4.77
2022-12-26T01:08:39.303Z,4.68
2022-12-26T01:12:41.593Z,4.77
2022-12-26T01:16:45.209Z,4.80
2022-12-26T01:20:47.812Z,4.85
2022-12-26T01:24:49.415Z,4.78
2022-12-26T01:28:53.093Z,4.89
2022-12-26T01:32:54.758Z,4.88
2022-12-26T01:36:56.866Z,4.80
2022-12-26T01:41:16.977Z,4.95
2022-12-26T01:45:29.712Z,4.90
2022-12-26T01:49:37.738Z,4.84
2022-12-26T01:53:45.466Z,4.97
2022-12-26T01:57:58.098Z,4.97
2022-12-26T02:02:00.832Z,5.00
2022-12-26T02:06:03.120Z,4.99
2022-12-26T02:10:10.362Z,5.04
2022-12-26T02:14:12.603Z,4.87
2022-12-26T02:18:14.547Z,4.76
2022-12-26T02:22:48.279Z,4.89
2022-12-26T02:27:11.471Z,4.58
2022-12-26T02:31:16.068Z,4.79
2022-12-26T02:35:42.713Z,4.87
2022-12-26T02:40:04.544Z,4.90
2022-12-26T02:44:40.944Z,4.78
2022-12-26T02:48:55.119Z,4.78
2022-12-26T02:53:36.835Z,4.78
2022-12-26T02:58:15.734Z,4.74
2022-12-26T03:02:46.772Z,4.76
2022-12-26T03:07:15.855Z,4.68
2022-12-26T03:11:41.504Z,4.74
2022-12-26T03:16:14.075Z,4.62
2022-12-26T03:20:19.978Z,4.67
2022-12-26T03:24:22.763Z,4.73
2022-12-26T03:28:26.175Z,4.79
2022-12-26T03:32:27.826Z,4.91
2022-12-26T03:37:02.541Z,4.75
2022-12-26T03:41:39.739Z,4.82
2022-12-26T03:46:00.362Z,4.80
2022-12-26T03:50:52.761Z,4.78
2022-12-26T03:55:22.941Z,4.78
2022-12-26T03:59:52.352Z,4.70
2022-12-26T04:04:16.509Z,4.63
2022-12-26T04:08:45.058Z,4.60
2022-12-26T04:13:07.708Z,4.17
2022-12-26T04:17:38.712Z,4.29
2022-12-26T04:22:22.250Z,4.33
2022-12-26T04:26:51.131Z,4.46
2022-12-26T04:31:17.445Z,4.45
2022-12-26T04:35:44.914Z,4.46
2022-12-26T04:40:08.009Z,4.45
2022-12-26T04:44:14.748Z,4.42
2022-12-26T04:48:35.078Z,4.49
2022-12-26T04:52:55.192Z,4.49
2022-12-26T04:56:58.085Z,4.54
2022-12-26T05:01:18.330Z,4.52
2022-12-26T05:05:38.662Z,4.58
2022-12-26T05:09:40.421Z,4.57
2022-12-26T05:13:42.509Z,4.45
2022-12-26T05:18:03.115Z,4.59
2022-12-26T05:22:24.344Z,4.49
2022-12-26T05:26:44.849Z,4.49
2022-12-26T05:30:46.987Z,4.67
2022-12-26T05:34:48.699Z,4.62
2022-12-26T05:38:51.401Z,4.53
2022-12-26T05:42:53.059Z,4.49
2022-12-26T05:46:55.093Z,4.49
2022-12-26T05:51:00.867Z,4.61
2022-12-26T05:55:02.961Z,4.60
2022-12-26T05:59:04.732Z,4.61
2022-12-26T06:03:06.861Z,4.51
2022-12-26T06:07:08.678Z,4.61
2022-12-26T06:11:12.727Z,4.56
2022-12-26T06:15:14.480Z,4.62
2022-12-26T06:19:16.435Z,4.70
2022-12-26T06:23:18.120Z,4.77
2022-12-26T06:27:20.143Z,4.70
2022-12-26T06:31:23.543Z,4.61
2022-12-26T06:35:25.631Z,4.75
2022-12-26T06:39:27.276Z,4.58
2022-12-26T06:43:29.173Z,4.59
2022-12-26T06:47:31.569Z,4.60
2022-12-26T06:51:33.599Z,4.62
2022-12-26T06:55:35.327Z,4.64
2022-12-26T06:59:37.280Z,4.61
2022-12-26T07:03:43.167Z,4.56
2022-12-26T07:07:52.360Z,4.70
2022-12-26T07:11:56.343Z,4.59
2022-12-26T07:16:01.301Z,4.59
2022-12-26T07:20:04.880Z,4.32
2022-12-26T07:24:08.840Z,4.60
2022-12-26T07:28:10.734Z,4.72
2022-12-26T07:32:13.006Z,4.65
2022-12-26T07:36:14.913Z,4.55
2022-12-26T07:40:16.871Z,4.73
2022-12-26T07:44:18.638Z,4.62
2022-12-26T07:48:20.824Z,4.66
2022-12-26T07:52:23.142Z,4.76
2022-12-26T07:56:25.108Z,4.76
2022-12-26T08:00:26.836Z,4.78
2022-12-26T08:04:29.652Z,4.91
2022-12-26T08:08:31.418Z,4.91
2022-12-26T08:12:34.318Z,4.74
2022-12-26T08:16:36.092Z,4.93
2022-12-26T08:20:38.109Z,4.97
2022-12-26T08:24:39.778Z,4.98
2022-12-26T08:28:41.851Z,5.05
2022-12-26T08:32:46.350Z,5.08
2022-12-26T08:36:52.189Z,5.01
2022-12-26T08:40:56.135Z,5.13
2022-12-26T08:44:58.388Z,5.01
2022-12-26T08:49:00.751Z,5.21
2022-12-26T08:53:03.251Z,5.22
2022-12-26T08:57:04.877Z,5.15
2022-12-26T09:01:08.169Z,5.09
2022-12-26T09:05:10.053Z,5.31
2022-12-26T09:09:12.761Z,5.27
2022-12-26T09:13:14.453Z,5.45
2022-12-26T09:17:17.270Z,5.48
2022-12-26T09:21:19.817Z,5.24
2022-12-26T09:25:24.465Z,5.35
2022-12-26T09:29:26.281Z,5.32
2022-12-26T09:33:29.416Z,5.30
2022-12-26T09:37:31.129Z,5.43
2022-12-26T09:41:48.351Z,5.42
2022-12-26T09:46:00.723Z,5.58
2022-12-26T09:50:09.339Z,5.64
2022-12-26T09:54:21.064Z,5.62
2022-12-26T09:58:47.321Z,5.61
2022-12-26T10:02:53.718Z,5.67
2022-12-26T10:07:18.737Z,5.73
2022-12-26T10:11:29.380Z,5.91
2022-12-26T10:15:39.950Z,6.07
2022-12-26T10:20:00.267Z,6.26
2022-12-26T10:24:27.322Z,6.38
2022-12-26T10:28:40.221Z,6.47
2022-12-26T10:32:45.869Z,6.54
2022-12-26T10:36:55.077Z,6.72
2022-12-26T10:41:03.554Z,6.70
2022-12-26T10:45:13.919Z,6.82
2022-12-26T10:49:18.647Z,6.90
2022-12-26T10:53:22.054Z,6.92
2022-12-26T10:57:25.027Z,7.21
2022-12-26T11:01:39.338Z,7.39
2022-12-26T11:06:09.193Z,7.40
2022-12-26T11:10:29.521Z,7.47
2022-12-26T11:14:38.421Z,7.52
2022-12-26T11:18:50.175Z,7.44
2022-12-26T11:22:52.514Z,7.57
2022-12-26T11:27:19.067Z,7.75
2022-12-26T11:31:28.008Z,7.60
2022-12-26T11:35:37.043Z,7.70
2022-12-26T11:39:38.960Z,7.75
2022-12-26T11:43:40.909Z,7.95
2022-12-26T11:47:45.725Z,8.04
2022-12-26T11:51:55.475Z,8.08
2022-12-26T11:56:03.951Z,8.12
2022-12-26T12:00:19.830Z,8.30
2022-12-26T12:04:21.458Z,8.71
2022-12-26T12:09:17.952Z,8.85
2022-12-26T12:13:19.842Z,8.74
2022-12-26T12:17:28.326Z,8.70
2022-12-26T12:21:43.997Z,8.57
2022-12-26T12:25:58.137Z,8.58
2022-12-26T12:30:16.842Z,8.73
2022-12-26T12:34:23.655Z,8.82
2022-12-26T12:38:31.077Z,8.96
2022-12-26T12:42:53.175Z,8.91
2022-12-26T12:47:17.426Z,9.08
2022-12-26T12:51:52.624Z,9.12
2022-12-26T12:56:21.099Z,9.32
2022-12-26T13:00:26.562Z,9.55
2022-12-26T13:04:39.976Z,9.26
2022-12-26T13:08:46.891Z,9.45
2022-12-26T13:12:50.806Z,9.53
2022-12-26T13:17:06.517Z,9.53
2022-12-26T13:21:12.849Z,9.48
2022-12-26T13:25:14.795Z,9.89
2022-12-26T13:29:31.957Z,9.87
2022-12-26T13:33:35.845Z,9.80
2022-12-26T13:37:37.783Z,9.79
2022-12-26T13:42:07.010Z,9.80
2022-12-26T13:46:27.819Z,9.81
2022-12-26T13:50:55.248Z,9.78
2022-12-26T13:55:06.739Z,9.86
2022-12-26T13:59:22.272Z,9.79
2022-12-26T14:03:45.063Z,9.88
2022-12-26T14:07:57.644Z,9.71
2022-12-26T14:12:22.872Z,9.59
2022-12-26T14:16:37.881Z,9.29
2022-12-26T14:20:51.720Z,9.36
2022-12-26T14:25:16.610Z,9.37
2022-12-26T14:29:31.358Z,9.61
2022-12-26T14:34:17.571Z,9.55
2022-12-26T14:39:01.472Z,9.33
2022-12-26T14:43:12.696Z,9.21
2022-12-26T14:47:34.431Z,9.03
2022-12-26T14:51:38.530Z,8.89
2022-12-26T14:55:53.598Z,8.92
2022-12-26T15:00:31.470Z,8.94
2022-12-26T15:04:52.625Z,8.88
2022-12-26T15:09:14.942Z,8.80
2022-12-26T15:13:29.594Z,8.86
2022-12-26T15:17:55.412Z,8.96
2022-12-26T15:22:27.653Z,9.07
2022-12-26T15:27:01.339Z,9.04
2022-12-26T15:31:22.038Z,8.89
2022-12-26T15:35:29.905Z,8.80
2022-12-26T15:39:39.833Z,8.82
2022-12-26T15:44:22.066Z,8.82
2022-12-26T15:48:24.073Z,8.86
2022-12-26T15:52:53.294Z,8.84
2022-12-26T15:57:23.580Z,8.69
2022-12-26T16:01:45.603Z,8.67
2022-12-26T16:05:53.344Z,8.40
2022-12-26T16:09:56.666Z,8.44
2022-12-26T16:14:01.661Z,8.53
2022-12-26T16:18:21.673Z,8.47
2022-12-26T16:22:49.372Z,8.54
2022-12-26T16:26:51.158Z,8.36
2022-12-26T16:30:53.415Z,8.46
2022-12-26T16:34:55.367Z,8.26
2022-12-26T16:38:57.369Z,8.58
2022-12-26T16:43:06.045Z,8.60
2022-12-26T16:47:12.136Z,8.67
2022-12-26T16:51:37.928Z,8.68
2022-12-26T16:55:43.293Z,8.61
2022-12-26T16:59:54.903Z,8.55
2022-12-26T17:04:19.645Z,8.63
2022-12-26T17:08:21.574Z,8.71
2022-12-26T17:12:34.421Z,8.73
2022-12-26T17:16:36.243Z,8.80
2022-12-26T17:20:39.090Z,8.77
2022-12-26T17:24:46.542Z,8.78
2022-12-26T17:28:48.970Z,8.91
2022-12-26T17:32:50.726Z,8.96
2022-12-26T17:37:18.423Z,9.21
2022-12-26T17:41:17.546Z,8.92
2022-12-26T17:45:25.101Z,9.29
2022-12-26T17:49:26.950Z,9.29
2022-12-26T17:53:37.842Z,9.27
2022-12-26T17:57:39.632Z,9.48
2022-12-26T18:01:41.685Z,9.50
2022-12-26T18:05:45.485Z,9.55
2022-12-26T18:09:48.548Z,9.56
2022-12-26T18:13:50.227Z,9.43
2022-12-26T18:17:53.132Z,9.11
2022-12-26T18:21:54.867Z,9.33
2022-12-26T18:26:00.384Z,9.10
2022-12-26T18:30:02.256Z,9.18
2022-12-26T18:34:04.337Z,9.06
2022-12-26T18:38:06.534Z,9.20
2022-12-26T18:42:13.652Z,9.28
2022-12-26T18:46:22.941Z,9.21
2022-12-26T18:50:25.051Z,8.95
2022-12-26T18:54:26.765Z,9.07
2022-12-26T18:58:28.754Z,9.17
2022-12-26T19:02:30.590Z,9.29
2022-12-26T19:06:35.122Z,8.93
2022-12-26T19:10:37.169Z,9.14
2022-12-26T19:14:40.082Z,9.17
2022-12-26T19:18:41.803Z,9.28
2022-12-26T19:22:45.250Z,9.27
2022-12-26T19:26:46.940Z,9.20
2022-12-26T19:30:48.950Z,9.30
2022-12-26T19:34:50.732Z,9.04
2022-12-26T19:38:54.235Z,9.05
2022-12-26T19:42:55.936Z,9.07
2022-12-26T19:47:11.778Z,9.08
2022-12-26T19:51:16.262Z,9.27
2022-12-26T19:55:18.433Z,9.51
2022-12-26T19:59:20.326Z,9.52
2022-12-26T20:03:22.419Z,9.72
2022-12-26T20:07:24.126Z,9.73
2022-12-26T20:11:36.016Z,9.59
2022-12-26T20:15:37.693Z,9.61
2022-12-26T20:19:39.654Z,9.70
2022-12-26T20:23:41.842Z,9.58
2022-12-26T20:27:44.481Z,9.63
2022-12-26T20:31:46.247Z,9.56
2022-12-26T20:35:48.240Z,9.53
2022-12-26T20:39:49.949Z,9.59
2022-12-26T20:43:52.174Z,9.64
2022-12-26T20:47:53.949Z,9.64
2022-12-26T20:51:55.841Z,9.51
2022-12-26T20:55:58.945Z,9.72
2022-12-26T21:00:00.981Z,9.57
2022-12-26T21:04:03.797Z,9.63
2022-12-26T21:08:06.304Z,9.57
2022-12-26T21:12:08.052Z,9.09
2022-12-26T21:16:22.091Z,9.14
2022-12-26T21:20:25.387Z,9.45
2022-12-26T21:24:30.507Z,9.41
2022-12-26T21:28:33.209Z,9.44
2022-12-26T21:32:35.198Z,9.45
2022-12-26T21:36:39.049Z,9.31
2022-12-26T21:40:43.274Z,9.49
2022-12-26T21:44:44.997Z,9.52
2022-12-26T21:48:47.397Z,9.47
2022-12-26T21:52:49.261Z,9.48
2022-12-26T21:56:51.232Z,9.45
2022-12-26T22:00:52.932Z,9.37
2022-12-26T22:04:55.102Z,9.39
2022-12-26T22:08:56.850Z,9.42
2022-12-26T22:12:59.454Z,9.30
2022-12-26T22:17:01.380Z,9.31
2022-12-26T22:21:15.173Z,8.97
2022-12-26T22:25:16.920Z,9.08
2022-12-26T22:29:18.930Z,8.67
2022-12-26T22:33:21.087Z,8.62
2022-12-26T22:37:22.848Z,8.77
2022-12-26T22:41:25.774Z,8.71
2022-12-26T22:45:27.412Z,8.61
2022-12-26T22:49:29.629Z,8.47
2022-12-26T22:53:32.128Z,8.44
2022-12-26T22:57:34.216Z,8.44
2022-12-26T23:01:36.024Z,8.30
2022-12-26T23:05:39.117Z,8.41
2022-12-26T23:09:40.976Z,8.68
2022-12-26T23:13:43.193Z,8.51
2022-12-26T23:18:28.071Z,8.51
2022-12-26T23:22:30.420Z,8.52
2022-12-26T23:26:32.125Z,8.02
2022-12-26T23:30:34.290Z,7.90
2022-12-26T23:34:36.421Z,7.82
2022-12-26T23:38:38.451Z,8.21
2022-12-26T23:42:40.175Z,8.41
2022-12-26T23:46:44.463Z,8.52
2022-12-26T23:50:46.289Z,8.49
2022-12-26T23:54:48.328Z,8.56
2022-12-26T23:58:50.009Z,8.57
